createdAt,value
2023-03-02T00:01:45.679Z,21.73
2023-03-02T00:06:42.213Z,16.98
2023-03-02T00:11:39.127Z,16.63
2023-03-02T00:16:35.559Z,23.83
2023-03-02T00:21:32.073Z,15.52
2023-03-02T00:26:28.541Z,16.05
2023-03-02T00:31:25.037Z,16.83
2023-03-02T00:36:23.276Z,17.13
2023-03-02T00:41:21.870Z,18.17
2023-03-02T00:46:21.029Z,16.80
2023-03-02T00:51:18.937Z,15.57
2023-03-02T00:56:15.414Z,17.67
2023-03-02T01:01:12.806Z,18.50
2023-03-02T01:06:16.393Z,17.77
2023-03-02T01:11:18.425Z,14.25
2023-03-02T01:16:14.953Z,16.45
2023-03-02T01:21:14.218Z,16.05
2023-03-02T01:26:11.589Z,16.67
2023-03-02T01:31:08.106Z,16.55
2023-03-02T01:36:04.876Z,17.70
2023-03-02T01:41:01.332Z,15.55
2023-03-02T01:46:07.033Z,15.48
2023-03-02T01:51:05.225Z,15.48
2023-03-02T01:56:03.557Z,15.52
2023-03-02T02:01:00.772Z,13.65
2023-03-02T02:06:08.227Z,16.35
2023-03-02T02:11:06.461Z,15.60
2023-03-02T02:16:03.506Z,14.77
2023-03-02T02:20:59.908Z,16.02
2023-03-02T02:25:59.830Z,17.00
2023-03-02T02:31:10.102Z,17.65
2023-03-02T02:36:12.926Z,19.80
2023-03-02T02:41:18.387Z,17.77
2023-03-02T02:46:15.615Z,15.55
2023-03-02T02:51:20.091Z,15.68
2023-03-02T02:56:17.290Z,16.40
2023-03-02T03:01:25.254Z,17.65
2023-03-02T03:06:38.071Z,16.45
2023-03-02T03:11:36.693Z,17.75
2023-03-02T03:16:34.458Z,19.30
2023-03-02T03:21:31.180Z,18.80
2023-03-02T03:26:27.943Z,19.48
2023-03-02T03:31:26.849Z,14.00
2023-03-02T03:36:23.374Z,14.02
2023-03-02T03:41:20.078Z,15.82
2023-03-02T03:46:16.932Z,16.23
2023-03-02T03:51:14.312Z,15.00
2023-03-02T03:56:10.799Z,14.25
2023-03-02T04:01:07.224Z,14.07
2023-03-02T04:06:03.738Z,14.63
2023-03-02T04:11:00.203Z,17.70
2023-03-02T04:15:56.626Z,16.10
2023-03-02T04:20:53.024Z,16.48
2023-03-02T04:25:49.497Z,17.50
2023-03-02T04:30:45.984Z,15.63
2023-03-02T04:35:42.415Z,18.52
2023-03-02T04:40:39.369Z,16.15
2023-03-02T04:45:35.874Z,15.45
2023-03-02T04:50:32.530Z,16.85
2023-03-02T04:55:29.045Z,15.77
2023-03-02T05:00:25.511Z,15.82
2023-03-02T05:05:24.693Z,16.10
2023-03-02T05:10:22.821Z,15.20
2023-03-02T05:15:19.208Z,17.10
2023-03-02T05:20:15.964Z,16.70
2023-03-02T05:25:12.465Z,17.13
2023-03-02T05:30:09.478Z,19.75
2023-03-02T05:35:06.599Z,19.35
2023-03-02T05:40:03.690Z,30.13
2023-03-02T05:45:00.130Z,19.90
2023-03-02T05:49:56.701Z,21.85
2023-03-02T05:54:53.185Z,21.00
2023-03-02T05:59:50.831Z,25.25
2023-03-02T06:04:47.313Z,22.27
2023-03-02T06:09:43.697Z,24.80
2023-03-02T06:14:40.228Z,19.85
2023-03-02T06:19:36.731Z,25.13
2023-03-02T06:24:33.265Z,20.70
2023-03-02T06:29:29.702Z,27.77
2023-03-02T06:34:26.283Z,20.15
2023-03-02T06:39:23.243Z,23.00
2023-03-02T06:44:19.751Z,24.13
2023-03-02T06:49:16.241Z,22.30
2023-03-02T06:54:12.812Z,20.98
2023-03-02T06:59:09.256Z,22.52
2023-03-02T07:04:05.825Z,21.95
2023-03-02T07:09:02.490Z,21.65
2023-03-02T07:14:02.308Z,30.77
2023-03-02T07:18:58.933Z,25.35
2023-03-02T07:23:55.628Z,31.63
2023-03-02T07:28:52.651Z,19.88
2023-03-02T07:33:49.072Z,20.15
2023-03-02T07:38:45.479Z,22.50
2023-03-02T07:43:41.962Z,19.40
2023-03-02T07:48:38.465Z,18.58
2023-03-02T07:53:34.923Z,21.08
2023-03-02T07:58:31.744Z,20.77
2023-03-02T08:03:28.405Z,26.30
2023-03-02T08:08:24.850Z,19.65
2023-03-02T08:13:21.268Z,19.85
2023-03-02T08:18:17.703Z,20.52
2023-03-02T08:23:14.091Z,20.25
2023-03-02T08:28:10.633Z,21.80
2023-03-02T08:33:07.363Z,22.02
2023-03-02T08:38:03.793Z,24.77
2023-03-02T08:43:00.218Z,23.27
2023-03-02T08:47:56.674Z,24.55
2023-03-02T08:52:53.279Z,25.27
2023-03-02T08:57:49.907Z,25.08
2023-03-02T09:02:46.337Z,28.92
2023-03-02T09:07:42.730Z,21.35
2023-03-02T09:12:40.232Z,20.08
2023-03-02T09:17:36.683Z,21.33
2023-03-02T09:22:35.772Z,21.27
2023-03-02T09:27:32.538Z,17.70
2023-03-02T09:32:29.077Z,19.55
2023-03-02T09:37:27.648Z,15.88
2023-03-02T09:42:27.098Z,19.60
2023-03-02T09:48:03.790Z,19.75
2023-03-02T09:53:29.291Z,18.70
2023-03-02T09:58:31.686Z,18.38
2023-03-02T10:03:36.447Z,22.92
2023-03-02T10:08:37.840Z,18.60
2023-03-02T10:14:04.006Z,19.55
2023-03-02T10:19:17.389Z,18.45
2023-03-02T10:24:35.229Z,18.02
2023-03-02T10:29:59.963Z,19.42
2023-03-02T10:34:57.952Z,22.83
2023-03-02T10:39:55.752Z,19.02
2023-03-02T10:44:59.295Z,19.38
2023-03-02T10:49:57.604Z,18.75
2023-03-02T10:55:14.169Z,18.00
2023-03-02T11:00:11.386Z,16.05
2023-03-02T11:05:33.788Z,19.35
2023-03-02T11:10:50.487Z,19.67
2023-03-02T11:15:50.141Z,18.58
2023-03-02T11:20:52.097Z,18.38
2023-03-02T11:25:58.513Z,19.33
2023-03-02T11:30:59.021Z,17.85
2023-03-02T11:36:25.424Z,17.70
2023-03-02T11:41:31.042Z,17.15
2023-03-02T11:46:33.019Z,15.60
2023-03-02T11:51:35.448Z,15.43
2023-03-02T11:56:36.460Z,16.35
2023-03-02T12:01:36.445Z,17.90
2023-03-02T12:06:40.324Z,20.48
2023-03-02T12:11:40.755Z,20.83
2023-03-02T12:16:40.893Z,20.52
2023-03-02T12:21:42.373Z,24.35
2023-03-02T12:26:38.961Z,20.02
2023-03-02T12:31:47.353Z,19.95
2023-03-02T12:36:44.404Z,18.98
2023-03-02T12:42:09.546Z,19.35
2023-03-02T12:47:16.195Z,17.73
2023-03-02T12:52:34.738Z,16.70
2023-03-02T12:57:31.738Z,18.52
2023-03-02T13:02:33.754Z,16.58
2023-03-02T13:07:37.455Z,20.63
2023-03-02T13:12:35.880Z,17.25
2023-03-02T13:17:32.947Z,16.08
2023-03-02T13:22:29.896Z,17.65
2023-03-02T13:27:28.043Z,17.08
2023-03-02T13:32:26.747Z,14.73
2023-03-02T13:37:43.667Z,11.23
2023-03-02T13:42:40.960Z,11.73
2023-03-02T13:47:37.454Z,15.57
2023-03-02T13:52:34.165Z,14.30
2023-03-02T13:57:32.275Z,12.50
2023-03-02T14:02:30.702Z,11.05
2023-03-02T14:07:27.157Z,11.05
2023-03-02T14:12:30.637Z,10.45
2023-03-02T14:17:27.421Z,10.48
2023-03-02T14:22:26.538Z,11.05
2023-03-02T14:27:26.960Z,9.55
2023-03-02T14:32:23.454Z,10.50
2023-03-02T14:37:25.624Z,13.45
2023-03-02T14:42:23.025Z,11.30
2023-03-02T14:47:19.658Z,11.48
2023-03-02T14:52:30.121Z,12.30
2023-03-02T14:57:28.567Z,10.77
2023-03-02T15:02:26.915Z,12.77
2023-03-02T15:07:25.522Z,12.07
2023-03-02T15:12:21.941Z,10.88
2023-03-02T15:17:18.385Z,12.00
2023-03-02T15:22:14.946Z,14.77
2023-03-02T15:27:11.445Z,12.30
2023-03-02T15:32:07.978Z,13.57
2023-03-02T15:37:04.438Z,15.20
2023-03-02T15:42:01.091Z,13.77
2023-03-02T15:46:59.154Z,20.30
2023-03-02T15:51:59.655Z,11.60
2023-03-02T15:56:56.239Z,16.63
2023-03-02T16:01:53.842Z,14.93
2023-03-02T16:06:50.348Z,14.43
2023-03-02T16:11:49.014Z,14.57
2023-03-02T16:16:46.460Z,12.13
2023-03-02T16:21:42.954Z,12.43
2023-03-02T16:26:39.424Z,11.70
2023-03-02T16:31:37.878Z,13.55
2023-03-02T16:36:36.559Z,16.63
2023-03-02T16:41:33.951Z,12.68
2023-03-02T16:46:32.323Z,13.40
2023-03-02T16:51:28.776Z,14.70
2023-03-02T16:56:25.273Z,14.68
2023-03-02T17:01:21.944Z,14.15
2023-03-02T17:06:20.745Z,17.00
2023-03-02T17:11:18.231Z,16.92
2023-03-02T17:16:16.638Z,17.00
2023-03-02T17:21:14.986Z,16.27
2023-03-02T17:26:11.505Z,18.30
2023-03-02T17:31:08.576Z,20.13
2023-03-02T17:36:07.395Z,18.10
2023-03-02T17:41:05.474Z,19.98
2023-03-02T17:46:20.530Z,18.73
2023-03-02T17:51:17.497Z,18.23
2023-03-02T17:56:15.324Z,22.63
2023-03-02T18:01:12.716Z,20.85
2023-03-02T18:06:09.165Z,24.88
2023-03-02T18:11:06.140Z,22.95
2023-03-02T18:16:02.840Z,23.42
2023-03-02T18:20:59.553Z,21.63
2023-03-02T18:25:56.093Z,20.90
2023-03-02T18:30:52.518Z,19.67
2023-03-02T18:35:49.117Z,22.83
2023-03-02T18:40:45.779Z,21.00
2023-03-02T18:45:42.208Z,19.80
2023-03-02T18:50:39.556Z,20.30
2023-03-02T18:55:40.290Z,19.30
2023-03-02T19:00:37.466Z,20.42
2023-03-02T19:05:33.891Z,23.08
2023-03-02T19:10:30.362Z,20.98
2023-03-02T19:15:26.942Z,19.77
2023-03-02T19:20:23.390Z,23.50
2023-03-02T19:25:20.120Z,23.00
2023-03-02T19:30:22.873Z,23.08
2023-03-02T19:35:24.796Z,22.23
2023-03-02T19:40:24.757Z,26.25
2023-03-02T19:45:28.492Z,21.08
2023-03-02T19:50:26.988Z,23.27
2023-03-02T19:55:24.395Z,24.23
2023-03-02T20:00:21.146Z,28.65
2023-03-02T20:05:17.684Z,23.13
2023-03-02T20:10:34.397Z,24.25
2023-03-02T20:15:33.280Z,21.95
2023-03-02T20:20:30.533Z,26.20
2023-03-02T20:25:28.054Z,24.38
2023-03-02T20:30:37.805Z,25.02
2023-03-02T20:35:39.863Z,28.67
2023-03-02T20:40:37.280Z,27.85
2023-03-02T20:45:34.212Z,27.83
2023-03-02T20:50:33.111Z,28.63
2023-03-02T20:55:29.584Z,25.35
2023-03-02T21:00:28.930Z,29.95
2023-03-02T21:05:26.826Z,31.83
2023-03-02T21:10:28.504Z,26.67
2023-03-02T21:15:27.141Z,26.98
2023-03-02T21:20:25.662Z,29.67
2023-03-02T21:25:22.058Z,30.35
2023-03-02T21:30:30.616Z,31.63
2023-03-02T21:35:27.135Z,31.48
2023-03-02T21:40:31.343Z,28.70
2023-03-02T21:45:29.079Z,32.13
2023-03-02T21:50:28.225Z,31.73
2023-03-02T21:55:26.871Z,32.85
2023-03-02T22:00:32.701Z,35.38
2023-03-02T22:05:29.381Z,39.85
2023-03-02T22:10:46.290Z,41.53
2023-03-02T22:15:46.557Z,44.63
2023-03-02T22:20:45.218Z,33.45
2023-03-02T22:25:45.447Z,35.88
2023-03-02T22:30:41.920Z,39.25
2023-03-02T22:35:38.436Z,39.10
2023-03-02T22:40:35.660Z,39.72
2023-03-02T22:45:32.130Z,43.85
2023-03-02T22:50:30.554Z,36.97
2023-03-02T22:55:39.291Z,41.85
2023-03-02T23:00:40.550Z,45.65
2023-03-02T23:05:37.228Z,42.35
2023-03-02T23:10:33.747Z,44.40
2023-03-02T23:15:34.994Z,48.97
2023-03-02T23:20:33.681Z,48.97
2023-03-02T23:25:30.119Z,42.85
2023-03-02T23:30:26.974Z,41.08
2023-03-02T23:35:23.598Z,50.47
2023-03-02T23:40:21.533Z,45.97
2023-03-02T23:45:18.578Z,50.47
2023-03-02T23:50:15.019Z,46.67
2023-03-02T23:55:11.638Z,41.83
